Hutchinson, Kansas
Current Conditions -  °F | °C
As of 10:52 AM on Saturday 22 Nov 2014 (Local Time) from KHUT Reporting Station
Haze Haze  
Wind Chill: 50°   Ceiling: 200
Heat Index: 50°   Visibility: 0.75mi
Dew Point: 48°   Wind: 10mph
Humidity: 93%   Direction: 180°S
Pressure: 29.89"   Gusts: NA
Location:  38.06°N, 97.93°W
Report Text: KHUT 221652Z 18009KT 3/4SM R13/4500VP6000FT BR OVC002 10/09 A2989 RMK AO2 SLP117 T01000089
Loading
Personal Weather Stations






























Interactive Weather Map New forecast layout! Learn more

10-Day Weather Forecast

Advertisements
Track Severe Weather on mobile